createdAt,value
2019-03-20T00:00:59.524Z,101386.59
2019-03-20T00:03:30.313Z,101388.20
2019-03-20T00:06:00.745Z,101391.91
2019-03-20T00:08:31.511Z,101387.81
2019-03-20T00:11:02.318Z,101396.53
2019-03-20T00:13:32.753Z,101394.14
2019-03-20T00:16:03.569Z,101395.56
2019-03-20T00:18:34.006Z,101396.16
2019-03-20T00:21:04.535Z,101405.92
2019-03-20T00:23:35.461Z,101401.91
2019-03-20T00:26:05.909Z,101407.70
2019-03-20T00:28:36.376Z,101401.65
2019-03-20T00:31:06.812Z,101403.63
2019-03-20T00:33:37.600Z,101399.20
2019-03-20T00:36:08.353Z,101395.12
2019-03-20T00:38:38.818Z,101397.55
2019-03-20T00:41:09.253Z,101398.03
2019-03-20T00:43:40.461Z,101400.89
2019-03-20T00:46:10.900Z,101384.66
2019-03-20T00:48:41.783Z,101384.19
2019-03-20T00:51:12.217Z,101388.36
2019-03-20T00:53:42.988Z,101384.41
2019-03-20T00:56:14.146Z,101388.55
2019-03-20T00:58:44.913Z,101383.38
2019-03-20T01:01:15.853Z,101386.16
2019-03-20T01:03:47.078Z,101388.80
2019-03-20T01:06:17.865Z,101380.06
2019-03-20T01:08:48.376Z,101381.20
2019-03-20T01:11:18.855Z,101386.33
2019-03-20T01:13:49.290Z,101387.25
2019-03-20T01:16:19.728Z,101383.12
2019-03-20T01:18:50.573Z,101386.75
2019-03-20T01:21:21.078Z,101387.00
2019-03-20T01:23:52.353Z,101385.09
2019-03-20T01:26:22.815Z,101390.59
2019-03-20T01:28:53.254Z,101384.25
2019-03-20T01:31:23.737Z,101382.13
2019-03-20T01:33:55.032Z,101378.64
2019-03-20T01:36:25.490Z,101386.81
2019-03-20T01:38:55.984Z,101393.48
2019-03-20T01:41:37.353Z,101389.06
2019-03-20T01:43:58.552Z,101388.22
2019-03-20T01:46:29.448Z,101389.39
2019-03-20T01:48:59.924Z,101392.50
2019-03-20T01:51:30.405Z,101394.66
2019-03-20T01:54:00.842Z,101395.40
2019-03-20T01:56:31.608Z,101396.27
2019-03-20T01:59:02.156Z,101394.41
2019-03-20T02:01:32.589Z,101392.65
2019-03-20T02:04:03.076Z,101390.45
2019-03-20T02:06:33.881Z,101388.11
2019-03-20T02:09:05.481Z,101394.30
2019-03-20T02:11:35.949Z,101382.68
2019-03-20T02:14:06.395Z,101386.63
2019-03-20T02:16:36.889Z,101387.95
2019-03-20T02:19:15.360Z,101387.62
2019-03-20T02:21:45.841Z,101394.69
2019-03-20T02:24:17.022Z,101397.66
2019-03-20T02:26:47.937Z,101389.02
2019-03-20T02:29:19.708Z,101386.13
2019-03-20T02:31:50.140Z,101394.95
2019-03-20T02:34:20.638Z,101398.66
2019-03-20T02:36:51.059Z,101402.80
2019-03-20T02:39:21.492Z,101394.73
2019-03-20T02:41:52.018Z,101400.63
2019-03-20T02:44:22.475Z,101404.30
2019-03-20T02:46:53.625Z,101402.47
2019-03-20T02:49:24.134Z,101409.20
2019-03-20T02:51:55.026Z,101412.17
2019-03-20T02:54:25.518Z,101409.57
2019-03-20T02:56:55.939Z,101405.10
2019-03-20T02:59:27.302Z,101405.58
2019-03-20T03:01:57.809Z,101405.76
2019-03-20T03:04:28.233Z,101413.48
2019-03-20T03:06:58.715Z,101417.78
2019-03-20T03:09:29.155Z,101413.82
2019-03-20T03:11:59.573Z,101411.19
2019-03-20T03:14:30.042Z,101403.45
2019-03-20T03:17:00.483Z,101408.07
2019-03-20T03:19:30.914Z,101408.88
2019-03-20T03:22:01.369Z,101408.14
2019-03-20T03:24:32.109Z,101410.23
2019-03-20T03:27:02.588Z,101401.80
2019-03-20T03:29:33.322Z,101406.16
2019-03-20T03:32:03.765Z,101401.69
2019-03-20T03:34:34.208Z,101401.88
2019-03-20T03:37:04.988Z,101406.61
2019-03-20T03:39:36.031Z,101406.16
2019-03-20T03:42:06.912Z,101403.05
2019-03-20T03:44:37.709Z,101401.88
2019-03-20T03:47:08.302Z,101402.94
2019-03-20T03:49:39.155Z,101402.86
2019-03-20T03:52:09.637Z,101404.04
2019-03-20T03:54:40.381Z,101404.38
2019-03-20T03:57:11.044Z,101404.44
2019-03-20T03:59:41.536Z,101404.25
2019-03-20T04:02:12.003Z,101404.36
2019-03-20T04:04:42.454Z,101399.09
2019-03-20T04:07:12.978Z,101399.70
2019-03-20T04:09:43.759Z,101397.98
2019-03-20T04:12:14.527Z,101407.02
2019-03-20T04:14:44.970Z,101410.83
2019-03-20T04:17:23.767Z,101413.14
2019-03-20T04:19:54.165Z,101405.74
2019-03-20T04:22:24.955Z,101408.11
2019-03-20T04:24:55.775Z,101414.97
2019-03-20T04:27:27.090Z,101416.83
2019-03-20T04:29:57.546Z,101422.03
2019-03-20T04:32:27.985Z,101415.92
2019-03-20T04:34:58.485Z,101418.55
2019-03-20T04:37:29.507Z,101417.83
2019-03-20T04:39:59.946Z,101414.45
2019-03-20T04:42:30.690Z,101423.42
2019-03-20T04:45:01.170Z,101424.67
2019-03-20T04:47:31.953Z,101430.20
2019-03-20T04:50:02.391Z,101429.09
2019-03-20T04:52:33.503Z,101430.47
2019-03-20T04:55:04.374Z,101428.42
2019-03-20T04:57:34.810Z,101431.79
2019-03-20T05:00:06.371Z,101433.59
2019-03-20T05:02:36.808Z,101430.70
2019-03-20T05:05:07.473Z,101437.73
2019-03-20T05:07:37.954Z,101438.47
2019-03-20T05:10:10.417Z,101438.06
2019-03-20T05:12:41.269Z,101436.67
2019-03-20T05:15:12.334Z,101443.81
2019-03-20T05:17:43.179Z,101440.70
2019-03-20T05:20:14.011Z,101445.64
2019-03-20T05:22:44.466Z,101444.80
2019-03-20T05:25:15.173Z,101444.57
2019-03-20T05:27:46.052Z,101444.13
2019-03-20T05:30:16.942Z,101445.78
2019-03-20T05:32:48.084Z,101451.23
2019-03-20T05:35:19.029Z,101446.16
2019-03-20T05:37:50.232Z,101451.44
2019-03-20T05:40:20.693Z,101457.89
2019-03-20T05:42:51.176Z,101456.91
2019-03-20T05:45:21.993Z,101460.62
2019-03-20T05:47:52.403Z,101465.10
2019-03-20T05:50:22.840Z,101466.16
2019-03-20T05:52:53.321Z,101467.16
2019-03-20T05:55:23.789Z,101472.36
2019-03-20T05:57:54.224Z,101467.42
2019-03-20T06:00:26.858Z,101467.68
2019-03-20T06:02:57.546Z,101470.98
2019-03-20T06:05:27.988Z,101474.09
2019-03-20T06:07:58.536Z,101479.48
2019-03-20T06:10:29.940Z,101479.83
2019-03-20T06:13:00.382Z,101485.29
2019-03-20T06:15:31.226Z,101482.25
2019-03-20T06:18:02.071Z,101478.77
2019-03-20T06:20:33.936Z,101475.88
2019-03-20T06:23:05.185Z,101483.75
2019-03-20T06:25:35.609Z,101487.20
2019-03-20T06:28:06.037Z,101489.42
2019-03-20T06:30:36.958Z,101487.59
2019-03-20T06:33:07.387Z,101485.53
2019-03-20T06:35:37.828Z,101484.13
2019-03-20T06:38:08.318Z,101487.80
2019-03-20T06:40:39.108Z,101486.03
2019-03-20T06:43:09.547Z,101489.17
2019-03-20T06:45:40.192Z,101493.45
2019-03-20T06:48:10.628Z,101494.27
2019-03-20T06:50:41.066Z,101498.57
2019-03-20T06:53:12.177Z,101504.50
2019-03-20T06:55:42.637Z,101506.64
2019-03-20T06:58:13.074Z,101508.71
2019-03-20T07:01:16.876Z,101508.16
2019-03-20T07:04:25.859Z,101510.12
2019-03-20T07:07:29.630Z,101511.61
2019-03-20T07:10:32.455Z,101514.22
2019-03-20T07:13:03.416Z,101519.19
2019-03-20T07:15:33.850Z,101522.67
2019-03-20T07:18:04.604Z,101522.98
2019-03-20T07:20:35.086Z,101530.58
2019-03-20T07:23:05.628Z,101521.95
2019-03-20T07:25:36.068Z,101533.14
2019-03-20T07:28:06.550Z,101522.41
2019-03-20T07:30:36.984Z,101524.14
2019-03-20T07:33:07.427Z,101522.41
2019-03-20T07:35:38.310Z,101531.70
2019-03-20T07:38:08.772Z,101525.30
2019-03-20T07:40:39.209Z,101521.73
2019-03-20T07:43:09.710Z,101528.80
2019-03-20T07:45:40.142Z,101530.58
2019-03-20T07:48:21.174Z,101532.05
2019-03-20T07:50:42.775Z,101538.58
2019-03-20T07:53:13.262Z,101532.79
2019-03-20T07:55:43.702Z,101536.81
2019-03-20T07:58:14.212Z,101537.80
2019-03-20T08:00:44.674Z,101547.99
2019-03-20T08:03:15.115Z,101538.81
2019-03-20T08:05:45.622Z,101547.44
2019-03-20T08:08:16.050Z,101550.55
2019-03-20T08:10:46.498Z,101553.62
2019-03-20T08:13:16.990Z,101549.06
2019-03-20T08:15:47.858Z,101553.72
2019-03-20T08:18:18.298Z,101556.31
2019-03-20T08:20:48.777Z,101559.17
2019-03-20T08:23:20.313Z,101557.66
2019-03-20T08:25:51.221Z,101562.92
2019-03-20T08:28:21.714Z,101564.84
2019-03-20T08:30:52.154Z,101566.27
2019-03-20T08:33:22.613Z,101567.08
2019-03-20T08:35:53.282Z,101568.60
2019-03-20T08:38:23.721Z,101564.08
2019-03-20T08:40:54.166Z,101572.53
2019-03-20T08:43:24.993Z,101568.84
2019-03-20T08:45:55.438Z,101569.87
2019-03-20T08:48:26.520Z,101573.02
2019-03-20T08:50:57.770Z,101568.30
2019-03-20T08:53:28.509Z,101570.67
2019-03-20T08:55:58.982Z,101570.25
2019-03-20T08:58:29.510Z,101571.38
2019-03-20T09:00:59.949Z,101575.42
2019-03-20T09:03:30.391Z,101576.84
2019-03-20T09:06:00.885Z,101571.08
2019-03-20T09:08:31.327Z,101574.11
2019-03-20T09:11:02.132Z,101570.01
2019-03-20T09:13:32.952Z,101570.58
2019-03-20T09:16:03.786Z,101568.48
2019-03-20T09:18:34.221Z,101569.67
2019-03-20T09:21:04.701Z,101561.38
2019-03-20T09:23:35.574Z,101563.67
2019-03-20T09:26:06.014Z,101559.50
2019-03-20T09:28:36.876Z,101555.59
2019-03-20T09:31:07.350Z,101556.56
2019-03-20T09:33:38.138Z,101551.56
2019-03-20T09:36:09.037Z,101549.50
2019-03-20T09:38:43.812Z,101553.13
2019-03-20T09:41:11.940Z,101547.43
2019-03-20T09:43:43.450Z,101545.77
2019-03-20T09:46:13.895Z,101545.76
2019-03-20T09:48:44.347Z,101538.87
2019-03-20T09:51:14.855Z,101539.17
2019-03-20T09:53:45.305Z,101535.33
2019-03-20T09:56:15.801Z,101530.22
2019-03-20T09:58:46.786Z,101535.61
2019-03-20T10:01:17.226Z,101528.91
2019-03-20T10:03:47.671Z,101529.63
2019-03-20T10:06:19.448Z,101533.41
2019-03-20T10:08:54.036Z,101535.23
2019-03-20T10:11:22.041Z,101531.48
2019-03-20T10:13:52.908Z,101533.52
2019-03-20T10:16:23.346Z,101522.94
2019-03-20T10:18:53.791Z,101526.06
2019-03-20T10:21:24.278Z,101522.20
2019-03-20T10:23:54.719Z,101530.24
2019-03-20T10:26:25.159Z,101533.38
2019-03-20T10:28:55.979Z,101524.53
2019-03-20T10:31:26.465Z,101520.06
2019-03-20T10:33:57.983Z,101521.27
2019-03-20T10:36:29.227Z,101529.09
2019-03-20T10:39:06.590Z,101524.80
2019-03-20T10:41:32.430Z,101523.93
2019-03-20T10:44:03.317Z,101526.50
2019-03-20T10:46:33.930Z,101538.55
2019-03-20T10:49:04.380Z,101542.20
2019-03-20T10:51:35.250Z,101541.08
2019-03-20T10:54:06.023Z,101543.11
2019-03-20T10:56:38.608Z,101548.00
2019-03-20T10:59:09.859Z,101546.02
2019-03-20T11:01:42.713Z,101543.98
2019-03-20T11:04:12.422Z,101547.18
2019-03-20T11:06:42.918Z,101547.03
2019-03-20T11:09:18.266Z,101543.70
2019-03-20T11:11:45.552Z,101556.50
2019-03-20T11:14:16.370Z,101559.52
2019-03-20T11:16:47.117Z,101564.74
2019-03-20T11:19:17.569Z,101557.94
2019-03-20T11:21:48.069Z,101562.37
2019-03-20T11:24:18.849Z,101559.50
2019-03-20T11:26:50.648Z,101563.84
2019-03-20T11:29:21.999Z,101563.95
2019-03-20T11:31:52.468Z,101563.05
2019-03-20T11:34:23.572Z,101555.31
2019-03-20T11:36:54.063Z,101563.58
2019-03-20T11:39:29.570Z,101564.22
2019-03-20T11:41:56.683Z,101562.77
2019-03-20T11:44:28.005Z,101558.99
2019-03-20T11:46:58.441Z,101553.88
2019-03-20T11:49:28.894Z,101553.56
2019-03-20T11:52:00.135Z,101550.59
2019-03-20T11:54:30.578Z,101554.09
2019-03-20T11:57:01.690Z,101547.23
2019-03-20T11:59:32.180Z,101546.64
2019-03-20T12:02:02.785Z,101545.17
2019-03-20T12:04:33.762Z,101549.50
2019-03-20T12:07:04.537Z,101558.47
2019-03-20T12:09:40.970Z,101556.45
2019-03-20T12:12:07.654Z,101553.75
2019-03-20T12:14:38.143Z,101556.98
2019-03-20T12:17:09.441Z,101548.22
2019-03-20T12:19:44.791Z,101544.78
2019-03-20T12:22:12.076Z,101549.56
2019-03-20T12:24:42.563Z,101542.00
2019-03-20T12:27:15.416Z,101537.61
2019-03-20T12:29:45.217Z,101535.00
2019-03-20T12:32:15.662Z,101538.00
2019-03-20T12:34:46.275Z,101536.53
2019-03-20T12:37:16.783Z,101543.84
2019-03-20T12:39:53.085Z,101541.43
2019-03-20T12:42:19.780Z,101550.38
2019-03-20T12:44:50.685Z,101546.53
2019-03-20T12:47:21.133Z,101556.51
2019-03-20T12:49:52.339Z,101557.88
2019-03-20T12:52:23.312Z,101566.91
2019-03-20T12:54:53.758Z,101565.81
2019-03-20T12:57:24.201Z,101568.05
2019-03-20T12:59:54.718Z,101562.45
2019-03-20T13:02:25.476Z,101560.41
2019-03-20T13:04:56.475Z,101550.42
2019-03-20T13:07:27.304Z,101554.00
2019-03-20T13:10:03.240Z,101547.81
2019-03-20T13:12:30.231Z,101552.43
2019-03-20T13:15:00.747Z,101553.03
2019-03-20T13:17:31.517Z,101551.47
2019-03-20T13:20:01.969Z,101554.23
2019-03-20T13:22:32.614Z,101555.23
2019-03-20T13:25:03.634Z,101558.66
2019-03-20T13:27:34.105Z,101557.01
2019-03-20T13:30:06.187Z,101548.83
2019-03-20T13:32:36.710Z,101546.55
2019-03-20T13:35:07.599Z,101547.62
2019-03-20T13:37:38.546Z,101542.80
2019-03-20T13:40:14.408Z,101546.05
2019-03-20T13:42:41.827Z,101544.29
2019-03-20T13:45:14.349Z,101541.10
2019-03-20T13:47:45.188Z,101546.51
2019-03-20T13:50:15.640Z,101548.55
2019-03-20T13:52:46.390Z,101541.60
2019-03-20T13:55:16.943Z,101542.16
2019-03-20T13:57:47.818Z,101541.64
2019-03-20T14:00:21.431Z,101543.44
2019-03-20T14:02:51.985Z,101543.64
2019-03-20T14:05:23.308Z,101542.77
2019-03-20T14:07:54.202Z,101547.41
2019-03-20T14:10:25.725Z,101544.86
2019-03-20T14:12:56.685Z,101547.11
2019-03-20T14:15:27.206Z,101549.52
2019-03-20T14:17:57.654Z,101547.06
2019-03-20T14:20:28.646Z,101545.91
2019-03-20T14:22:59.158Z,101550.35
2019-03-20T14:25:29.949Z,101549.15
2019-03-20T14:28:00.754Z,101544.05
2019-03-20T14:30:31.277Z,101544.98
2019-03-20T14:33:01.721Z,101546.04
2019-03-20T14:35:32.450Z,101552.66
2019-03-20T14:38:03.275Z,101543.88
2019-03-20T14:40:37.151Z,101546.60
2019-03-20T14:43:06.410Z,101543.09
2019-03-20T14:45:37.233Z,101536.80
2019-03-20T14:48:08.130Z,101536.55
2019-03-20T14:50:38.828Z,101536.34
2019-03-20T14:53:09.321Z,101539.94
2019-03-20T14:55:39.765Z,101533.14
2019-03-20T14:58:10.525Z,101532.08
2019-03-20T15:00:41.018Z,101530.97
2019-03-20T15:03:11.781Z,101528.53
2019-03-20T15:05:42.535Z,101526.81
2019-03-20T15:08:13.216Z,101529.49
2019-03-20T15:10:46.203Z,101526.17
2019-03-20T15:13:16.127Z,101521.58
2019-03-20T15:15:49.922Z,101524.27
2019-03-20T15:18:20.389Z,101524.49
2019-03-20T15:20:50.856Z,101525.84
2019-03-20T15:23:21.364Z,101521.36
2019-03-20T15:25:51.814Z,101523.34
2019-03-20T15:28:22.259Z,101527.41
2019-03-20T15:30:52.746Z,101523.43
2019-03-20T15:33:23.186Z,101522.45
2019-03-20T15:35:53.650Z,101524.17
2019-03-20T15:38:24.152Z,101526.11
2019-03-20T15:40:56.323Z,101519.97
2019-03-20T15:43:26.767Z,101525.14
2019-03-20T15:45:57.267Z,101522.59
2019-03-20T15:48:28.098Z,101516.49
2019-03-20T15:50:58.952Z,101523.09
2019-03-20T15:53:29.566Z,101516.77
2019-03-20T15:56:00.018Z,101518.98
2019-03-20T15:58:30.860Z,101516.90
2019-03-20T16:01:02.026Z,101510.84
2019-03-20T16:03:32.609Z,101512.17
2019-03-20T16:06:03.979Z,101514.95
2019-03-20T16:08:35.044Z,101512.78
2019-03-20T16:11:06.788Z,101514.48
2019-03-20T16:13:37.950Z,101515.23
2019-03-20T16:16:08.812Z,101509.13
2019-03-20T16:18:39.743Z,101512.78
2019-03-20T16:21:10.491Z,101515.59
2019-03-20T16:23:41.342Z,101520.85
2019-03-20T16:26:11.778Z,101518.91
2019-03-20T16:28:42.218Z,101526.66
2019-03-20T16:31:13.499Z,101521.77
2019-03-20T16:33:43.936Z,101518.86
2019-03-20T16:36:14.773Z,101524.20
2019-03-20T16:38:45.341Z,101530.67
2019-03-20T16:41:16.948Z,101528.13
2019-03-20T16:43:47.613Z,101533.95
2019-03-20T16:46:18.100Z,101539.55
2019-03-20T16:48:48.873Z,101537.24
2019-03-20T16:51:19.720Z,101536.88
2019-03-20T16:53:50.212Z,101542.63
2019-03-20T16:56:20.667Z,101536.89
2019-03-20T16:58:51.149Z,101541.88
2019-03-20T17:01:22.043Z,101547.97
2019-03-20T17:03:52.489Z,101549.79
2019-03-20T17:06:22.935Z,101547.73
2019-03-20T17:08:53.443Z,101545.90
2019-03-20T17:11:34.419Z,101545.55
2019-03-20T17:13:56.308Z,101545.70
2019-03-20T17:16:26.954Z,101552.84
2019-03-20T17:18:57.697Z,101557.12
2019-03-20T17:21:28.144Z,101555.31
2019-03-20T17:23:59.030Z,101557.49
2019-03-20T17:26:29.495Z,101554.44
2019-03-20T17:29:08.549Z,101560.41
2019-03-20T17:31:32.506Z,101553.48
2019-03-20T17:34:02.999Z,101554.57
2019-03-20T17:36:34.097Z,101552.77
2019-03-20T17:39:08.311Z,101548.52
2019-03-20T17:41:38.749Z,101544.59
2019-03-20T17:44:09.196Z,101537.92
2019-03-20T17:46:40.297Z,101543.28
2019-03-20T17:49:11.612Z,101537.16
2019-03-20T17:51:42.061Z,101548.48
2019-03-20T17:54:12.870Z,101549.91
2019-03-20T17:56:43.593Z,101545.91
2019-03-20T17:59:14.052Z,101551.87
2019-03-20T18:01:44.896Z,101558.44
2019-03-20T18:04:15.333Z,101563.20
2019-03-20T18:06:45.773Z,101568.17
2019-03-20T18:09:16.266Z,101563.20
2019-03-20T18:11:47.797Z,101569.02
2019-03-20T18:14:18.410Z,101568.92
2019-03-20T18:16:49.262Z,101569.76
2019-03-20T18:19:20.414Z,101568.89
2019-03-20T18:21:50.891Z,101573.52
2019-03-20T18:24:22.084Z,101570.72
2019-03-20T18:26:52.588Z,101570.81
2019-03-20T18:29:23.037Z,101576.41
2019-03-20T18:31:53.544Z,101577.28
2019-03-20T18:34:24.456Z,101586.02
2019-03-20T18:36:55.278Z,101588.66
2019-03-20T18:39:26.519Z,101588.17
2019-03-20T18:41:57.944Z,101589.52
2019-03-20T18:44:28.948Z,101596.08
2019-03-20T18:46:59.434Z,101598.71
2019-03-20T18:49:30.275Z,101600.38
2019-03-20T18:52:01.418Z,101600.38
2019-03-20T18:54:32.356Z,101600.50
2019-03-20T18:57:02.811Z,101593.98
2019-03-20T18:59:33.619Z,101598.08
2019-03-20T19:02:04.229Z,101600.88
2019-03-20T19:04:35.071Z,101599.87
2019-03-20T19:07:08.590Z,101601.72
2019-03-20T19:09:41.290Z,101600.55
2019-03-20T19:12:15.658Z,101604.43
2019-03-20T19:14:48.743Z,101606.66
2019-03-20T19:17:21.538Z,101599.46
2019-03-20T19:19:57.800Z,101610.95
2019-03-20T19:22:32.452Z,101607.77
2019-03-20T19:25:03.098Z,101618.20
2019-03-20T19:27:33.576Z,101615.52
2019-03-20T19:30:04.546Z,101618.05
2019-03-20T19:32:35.020Z,101623.61
2019-03-20T19:35:07.213Z,101624.59
2019-03-20T19:37:38.497Z,101624.22
2019-03-20T19:40:09.695Z,101624.80
2019-03-20T19:42:40.313Z,101623.47
2019-03-20T19:45:11.164Z,101622.75
2019-03-20T19:47:41.614Z,101623.70
2019-03-20T19:50:14.405Z,101622.95
2019-03-20T19:52:44.909Z,101627.45
2019-03-20T19:55:17.736Z,101626.12
2019-03-20T19:57:48.191Z,101623.45
2019-03-20T20:00:24.763Z,101626.70
2019-03-20T20:02:55.270Z,101627.31
2019-03-20T20:05:26.438Z,101624.03
2019-03-20T20:07:56.935Z,101620.21
2019-03-20T20:10:28.455Z,101620.11
2019-03-20T20:12:59.590Z,101614.30
2019-03-20T20:15:30.201Z,101626.28
2019-03-20T20:18:00.659Z,101623.00
2019-03-20T20:20:31.956Z,101626.50
2019-03-20T20:23:05.390Z,101625.74
2019-03-20T20:25:35.874Z,101631.32
2019-03-20T20:28:11.365Z,101632.14
2019-03-20T20:30:42.103Z,101634.93
2019-03-20T20:33:12.957Z,101634.30
2019-03-20T20:35:44.596Z,101636.67
2019-03-20T20:38:15.062Z,101637.11
2019-03-20T20:40:45.518Z,101633.91
2019-03-20T20:43:16.006Z,101628.69
2019-03-20T20:45:47.432Z,101638.79
2019-03-20T20:48:17.929Z,101640.21
2019-03-20T20:50:49.025Z,101636.44
2019-03-20T20:53:19.865Z,101640.70
2019-03-20T20:55:50.319Z,101640.21
2019-03-20T20:58:20.751Z,101632.11
2019-03-20T21:00:51.820Z,101635.39
2019-03-20T21:03:22.627Z,101634.00
2019-03-20T21:05:53.103Z,101639.34
2019-03-20T21:08:24.650Z,101637.45
2019-03-20T21:10:55.103Z,101640.30
2019-03-20T21:13:25.864Z,101632.10
2019-03-20T21:15:59.663Z,101633.86
2019-03-20T21:19:17.951Z,101632.58
2019-03-20T21:22:45.850Z,101635.92
2019-03-20T21:25:25.799Z,101640.03
2019-03-20T21:29:07.572Z,101634.24
2019-03-20T21:31:48.559Z,101629.59
2019-03-20T21:34:44.911Z,101631.55
2019-03-20T21:38:02.614Z,101634.41
2019-03-20T21:40:52.776Z,101636.77
2019-03-20T21:44:09.533Z,101642.90
2019-03-20T21:47:10.169Z,101645.30
2019-03-20T21:49:41.196Z,101649.78
2019-03-20T21:52:12.163Z,101652.31
2019-03-20T21:55:28.335Z,101649.21
2019-03-20T21:58:13.745Z,101655.25
2019-03-20T22:01:30.487Z,101656.88
2019-03-20T22:04:01.490Z,101660.05
2019-03-20T22:07:07.566Z,101666.38
2019-03-20T22:10:19.905Z,101665.05
2019-03-20T22:13:04.861Z,101658.38
2019-03-20T22:16:14.772Z,101659.53
2019-03-20T22:19:23.907Z,101661.70
2019-03-20T22:22:45.734Z,101658.55
2019-03-20T22:25:46.529Z,101659.15
2019-03-20T22:28:57.018Z,101660.21
2019-03-20T22:31:28.318Z,101658.49
2019-03-20T22:34:48.878Z,101662.98
2019-03-20T22:37:20.065Z,101664.39
2019-03-20T22:40:37.357Z,101666.33
2019-03-20T22:43:32.929Z,101673.84
2019-03-20T22:46:45.353Z,101682.33
2019-03-20T22:50:10.052Z,101676.50
2019-03-20T22:53:15.081Z,101672.89
2019-03-20T22:56:29.794Z,101677.27
2019-03-20T22:59:00.782Z,101683.06
2019-03-20T23:01:42.826Z,101682.98
2019-03-20T23:04:20.492Z,101682.11
2019-03-20T23:06:51.617Z,101686.11
2019-03-20T23:09:22.466Z,101684.78
2019-03-20T23:11:53.722Z,101686.77
2019-03-20T23:14:25.045Z,101686.55
2019-03-20T23:16:56.219Z,101685.44
2019-03-20T23:19:27.107Z,101685.71
2019-03-20T23:21:57.971Z,101689.44
2019-03-20T23:24:28.812Z,101688.48
2019-03-20T23:27:01.215Z,101696.27
2019-03-20T23:29:32.063Z,101702.94
2019-03-20T23:32:03.472Z,101694.94
2019-03-20T23:34:34.362Z,101704.66
2019-03-20T23:37:05.208Z,101701.60
2019-03-20T23:39:36.067Z,101707.32
2019-03-20T23:42:07.591Z,101707.42
2019-03-20T23:44:38.828Z,101703.42
2019-03-20T23:47:09.679Z,101708.00
2019-03-20T23:49:40.579Z,101705.44
2019-03-20T23:52:11.410Z,101703.83
2019-03-20T23:54:48.294Z,101704.32
2019-03-20T23:57:20.034Z,101707.27
2019-03-20T23:59:51.589Z,101706.28
